Author Topic: Windy at KSFO  (Read 2186 times)

Offline start

  • Newbie
  • *
  • Posts: 11
Windy at KSFO
« on: April 14, 2009, 08:22:24 PM »
KSFO 142356Z 29034G50KT 10SM FEW035 SCT150 10/03 A2993 RMK AO2 PK WND 28051/2332 SLP133 T01000028 10122 20100 57013

KSFO 142338Z 1500/1606 28038G48KT P6SM FEW040
     FM150200 28033G40KT P6SM FEW040
     FM150700 28027G33KT P6SM SKC
     FM151000 28020G26KT P6SM SKC
     FM152300 27023G29KT P6SM SCT250
     FM160300 26018KT P6SM SCT250
       
SFO Tower has advised moderate turbulence and a microburst that was at the 1 mile final for runways 28L and 28R. So far, a United plane did go-around.



Offline Squawk 7700

  • Hero Member
  • *****
  • Posts: 512
    • Squawk 7700 on Flickr
Re: Windy at KSFO
« Reply #1 on: April 14, 2009, 10:08:25 PM »
Oakland windy too. Wind's are howling here in Alameda.
Big rig overturned on the San Mateo Bridge due to strong winds. Bridge closed.
« Last Edit: April 14, 2009, 10:29:17 PM by Squawk 7700 »
Feeder:
KHWD Ground/Tower
KOAK Del/Gnd/Twr
KSFO NORCAL App Rwy 28L/R
KSFO Tower/Ground
NORCAL Approach (KOAK)
NORCAL Departure (KSFO/KOAK)
KSJC NORCAL Apr#2
ZOA Oakland Center (35/40/41)
RJTT App/Dep
RJTT Tokyo Control
RJTT Twr/TCA + Ground